sensor_id;sensor_type;location;lat;lon;timestamp;pressure;altitude;pressure_sealevel;temperature;humidity
34925;BME280;21130;51.728;8.748;2022-08-01T00:00:18;100282.19;;;17.76;100.00
34925;BME280;21130;51.728;8.748;2022-08-01T00:02:44;100290.31;;;17.78;100.00
34925;BME280;21130;51.728;8.748;2022-08-01T00:05:09;100284.19;;;17.76;100.00
34925;BME280;21130;51.728;8.748;2022-08-01T00:07:36;100277.97;;;17.79;100.00
34925;BME280;21130;51.728;8.748;2022-08-01T00:10:10;100281.59;;;17.79;100.00
34925;BME280;21130;51.728;8.748;2022-08-01T00:12:35;100292.00;;;17.79;100.00
34925;BME280;21130;51.728;8.748;2022-08-01T00:15:01;100281.06;;;17.77;100.00
34925;BME280;21130;51.728;8.748;2022-08-01T00:17:27;100287.22;;;17.79;100.00
34925;BME280;21130;51.728;8.748;2022-08-01T00:19:53;100281.59;;;17.79;100.00
34925;BME280;21130;51.728;8.748;2022-08-01T00:22:18;100290.31;;;17.78;100.00
34925;BME280;21130;51.728;8.748;2022-08-01T00:24:43;100280.78;;;17.79;100.00
34925;BME280;21130;51.728;8.748;2022-08-01T00:27:08;100285.56;;;17.78;100.00
34925;BME280;21130;51.728;8.748;2022-08-01T00:29:34;100276.59;;;17.76;100.00
34925;BME280;21130;51.728;8.748;2022-08-01T00:31:59;100280.00;;;17.73;100.00
34925;BME280;21130;51.728;8.748;2022-08-01T00:34:25;100280.50;;;17.75;100.00
34925;BME280;21130;51.728;8.748;2022-08-01T00:36:50;100277.69;;;17.75;100.00
34925;BME280;21130;51.728;8.748;2022-08-01T00:39:15;100279.06;;;17.78;100.00
34925;BME280;21130;51.728;8.748;2022-08-01T00:41:40;100281.06;;;17.77;100.00
34925;BME280;21130;51.728;8.748;2022-08-01T00:44:06;100273.47;;;17.78;100.00
34925;BME280;21130;51.728;8.748;2022-08-01T00:46:32;100281.06;;;17.77;100.00
34925;BME280;21130;51.728;8.748;2022-08-01T00:48:58;100272.91;;;17.81;100.00
34925;BME280;21130;51.728;8.748;2022-08-01T00:51:25;100275.72;;;17.81;100.00
34925;BME280;21130;51.728;8.748;2022-08-01T00:53:50;100281.59;;;17.79;100.00
34925;BME280;21130;51.728;8.748;2022-08-01T00:56:16;100278.25;;;17.77;100.00
34925;BME280;21130;51.728;8.748;2022-08-01T00:58:41;100275.75;;;17.76;100.00
34925;BME280;21130;51.728;8.748;2022-08-01T01:01:07;100274.91;;;17.75;100.00
34925;BME280;21130;51.728;8.748;2022-08-01T01:03:33;100276.31;;;17.73;100.00
34925;BME280;21130;51.728;8.748;2022-08-01T01:08:58;100275.75;;;17.76;100.00
34925;BME280;21130;51.728;8.748;2022-08-01T01:11:31;100278.31;;;17.72;100.00
34925;BME280;21130;51.728;8.748;2022-08-01T01:14:09;100278.59;;;17.70;100.00
34925;BME280;21130;51.728;8.748;2022-08-01T01:16:36;100274.06;;;17.75;100.00
34925;BME280;21130;51.728;8.748;2022-08-01T01:19:08;100271.31;;;17.69;100.00
34925;BME280;21130;51.728;8.748;2022-08-01T01:24:37;100264.88;;;17.69;100.00
34925;BME280;21130;51.728;8.748;2022-08-01T01:27:13;100267.69;;;17.69;100.00
34925;BME280;21130;51.728;8.748;2022-08-01T01:29:50;100269.06;;;17.71;100.00
34925;BME280;21130;51.728;8.748;2022-08-01T01:32:19;100278.91;;;17.69;100.00
34925;BME280;21130;51.728;8.748;2022-08-01T01:34:49;100266.59;;;17.65;100.00
34925;BME280;21130;51.728;8.748;2022-08-01T01:37:20;100278.47;;;17.57;100.00
34925;BME280;21130;51.728;8.748;2022-08-01T01:39:49;100274.59;;;17.53;100.00
34925;BME280;21130;51.728;8.748;2022-08-01T01:42:17;100275.72;;;17.52;100.00
34925;BME280;21130;51.728;8.748;2022-08-01T01:44:43;100274.41;;;17.44;100.00
34925;BME280;21130;51.728;8.748;2022-08-01T01:47:11;100280.13;;;17.34;100.00
34925;BME280;21130;51.728;8.748;2022-08-01T01:49:38;100291.69;;;17.27;100.00
34925;BME280;21130;51.728;8.748;2022-08-01T01:52:07;100285.53;;;17.25;100.00
34925;BME280;21130;51.728;8.748;2022-08-01T01:54:36;100295.38;;;17.22;100.00
34925;BME280;21130;51.728;8.748;2022-08-01T01:57:03;100288.94;;;17.22;100.00
34925;BME280;21130;51.728;8.748;2022-08-01T01:59:32;100296.78;;;17.20;100.00
34925;BME280;21130;51.728;8.748;2022-08-01T02:01:59;100292.91;;;17.16;100.00
34925;BME280;21130;51.728;8.748;2022-08-01T02:04:27;100298.81;;;17.14;100.00
34925;BME280;21130;51.728;8.748;2022-08-01T02:06:54;100297.72;;;17.10;100.00
34925;BME280;21130;51.728;8.748;2022-08-01T02:09:21;100298.31;;;17.07;100.00
34925;BME280;21130;51.728;8.748;2022-08-01T02:11:49;100291.88;;;17.06;100.00
34925;BME280;21130;51.728;8.748;2022-08-01T02:14:16;100291.88;;;17.06;100.00
34925;BME280;21130;51.728;8.748;2022-08-01T02:16:46;100296.06;;;17.09;100.00
34925;BME280;21130;51.728;8.748;2022-08-01T02:19:12;100294.13;;;17.04;100.00
34925;BME280;21130;51.728;8.748;2022-08-01T02:22:00;100289.66;;;17.03;100.00
34925;BME280;21130;51.728;8.748;2022-08-01T02:24:40;100292.16;;;17.05;100.00
34925;BME280;21130;51.728;8.748;2022-08-01T02:27:11;100304.78;;;17.02;100.00
34925;BME280;21130;51.728;8.748;2022-08-01T02:29:52;100305.66;;;17.03;100.00
34925;BME280;21130;51.728;8.748;2022-08-01T02:32:31;100302.31;;;17.01;100.00
34925;BME280;21130;51.728;8.748;2022-08-01T02:35:01;100297.28;;;16.98;100.00
34925;BME280;21130;51.728;8.748;2022-08-01T02:37:29;100296.41;;;16.97;100.00
34925;BME280;21130;51.728;8.748;2022-08-01T02:39:56;100296.69;;;17.01;100.00
34925;BME280;21130;51.728;8.748;2022-08-01T02:42:24;100298.94;;;16.99;100.00
34925;BME280;21130;51.728;8.748;2022-08-01T02:44:51;100296.97;;;16.99;100.00
34925;BME280;21130;51.728;8.748;2022-08-01T02:47:19;100299.81;;;16.94;100.00
34925;BME280;21130;51.728;8.748;2022-08-01T02:49:46;100293.63;;;16.97;100.00
34925;BME280;21130;51.728;8.748;2022-08-01T02:52:15;100306.53;;;16.98;100.00
34925;BME280;21130;51.728;8.748;2022-08-01T02:54:43;100295.88;;;17.00;100.00
34925;BME280;21130;51.728;8.748;2022-08-01T02:57:12;100300.31;;;17.01;100.00
34925;BME280;21130;51.728;8.748;2022-08-01T02:59:39;100307.59;;;17.02;100.00
34925;BME280;21130;51.728;8.748;2022-08-01T03:02:06;100302.91;;;16.98;100.00
34925;BME280;21130;51.728;8.748;2022-08-01T03:04:57;100309.34;;;16.98;100.00
34925;BME280;21130;51.728;8.748;2022-08-01T03:07:23;100313.25;;;16.97;100.00
34925;BME280;21130;51.728;8.748;2022-08-01T03:09:49;100303.72;;;16.98;100.00
34925;BME280;21130;51.728;8.748;2022-08-01T03:12:18;100309.88;;;17.00;100.00
34925;BME280;21130;51.728;8.748;2022-08-01T03:14:46;100312.97;;;16.99;100.00
34925;BME280;21130;51.728;8.748;2022-08-01T03:17:12;100312.41;;;16.97;100.00
34925;BME280;21130;51.728;8.748;2022-08-01T03:19:39;100308.78;;;16.96;100.00
34925;BME280;21130;51.728;8.748;2022-08-01T03:22:11;100314.94;;;16.98;100.00
34925;BME280;21130;51.728;8.748;2022-08-01T03:24:39;100317.75;;;16.98;100.00
34925;BME280;21130;51.728;8.748;2022-08-01T03:27:07;100318.81;;;17.02;100.00
34925;BME280;21130;51.728;8.748;2022-08-01T03:29:34;100320.53;;;16.98;100.00
34925;BME280;21130;51.728;8.748;2022-08-01T03:32:00;100317.75;;;16.98;100.00
34925;BME280;21130;51.728;8.748;2022-08-01T03:34:26;100325.84;;;17.00;100.00
34925;BME280;21130;51.728;8.748;2022-08-01T03:37:12;100324.47;;;16.97;100.00
34925;BME280;21130;51.728;8.748;2022-08-01T03:40:00;100320.78;;;17.02;100.00
34925;BME280;21130;51.728;8.748;2022-08-01T03:42:44;100327.53;;;17.01;100.00
34925;BME280;21130;51.728;8.748;2022-08-01T03:45:16;100320.81;;;16.97;100.00
34925;BME280;21130;51.728;8.748;2022-08-01T03:47:46;100333.13;;;17.01;100.00
34925;BME280;21130;51.728;8.748;2022-08-01T03:50:14;100334.84;;;16.97;100.00
34925;BME280;21130;51.728;8.748;2022-08-01T03:52:43;100341.59;;;16.96;100.00
34925;BME280;21130;51.728;8.748;2022-08-01T03:55:11;100343.84;;;16.94;100.00
34925;BME280;21130;51.728;8.748;2022-08-01T03:57:37;100338.22;;;16.94;100.00
34925;BME280;21130;51.728;8.748;2022-08-01T04:00:05;100348.31;;;16.95;100.00
34925;BME280;21130;51.728;8.748;2022-08-01T04:02:34;100350.00;;;16.96;100.00
34925;BME280;21130;51.728;8.748;2022-08-01T04:05:01;100349.13;;;16.95;100.00
34925;BME280;21130;51.728;8.748;2022-08-01T04:07:32;100350.03;;;16.91;100.00
34925;BME280;21130;51.728;8.748;2022-08-01T04:09:58;100347.25;;;16.91;100.00
34925;BME280;21130;51.728;8.748;2022-08-01T04:12:24;100358.97;;;16.93;100.00
34925;BME280;21130;51.728;8.748;2022-08-01T04:14:49;100355.88;;;16.94;100.00
34925;BME280;21130;51.728;8.748;2022-08-01T04:17:15;100362.66;;;16.88;100.00
34925;BME280;21130;51.728;8.748;2022-08-01T04:19:42;100354.78;;;16.90;100.00
34925;BME280;21130;51.728;8.748;2022-08-01T04:22:10;100354.22;;;16.93;100.00
34925;BME280;21130;51.728;8.748;2022-08-01T04:24:37;100355.88;;;16.94;100.00
34925;BME280;21130;51.728;8.748;2022-08-01T04:27:06;100347.44;;;16.99;100.00
34925;BME280;21130;51.728;8.748;2022-08-01T04:29:33;100354.50;;;16.92;100.00
34925;BME280;21130;51.728;8.748;2022-08-01T04:32:00;100353.13;;;16.89;100.00
34925;BME280;21130;51.728;8.748;2022-08-01T04:34:28;100356.47;;;16.91;100.00
34925;BME280;21130;51.728;8.748;2022-08-01T04:36:56;100361.50;;;16.94;100.00
34925;BME280;21130;51.728;8.748;2022-08-01T04:39:24;100355.38;;;16.87;100.00
34925;BME280;21130;51.728;8.748;2022-08-01T04:41:53;100363.47;;;16.94;100.00
34925;BME280;21130;51.728;8.748;2022-08-01T04:44:22;100374.09;;;16.97;100.00
34925;BME280;21130;51.728;8.748;2022-08-01T04:46:48;100369.63;;;16.96;100.00
34925;BME280;21130;51.728;8.748;2022-08-01T04:49:14;100373.81;;;16.98;100.00
34925;BME280;21130;51.728;8.748;2022-08-01T04:51:51;100379.41;;;16.98;100.00
34925;BME280;21130;51.728;8.748;2022-08-01T04:54:22;100381.38;;;16.98;100.00
34925;BME280;21130;51.728;8.748;2022-08-01T04:56:48;100375.44;;;17.04;100.00
34925;BME280;21130;51.728;8.748;2022-08-01T04:59:13;100381.63;;;17.01;100.00
34925;BME280;21130;51.728;8.748;2022-08-01T05:01:57;100383.88;;;16.99;100.00
34925;BME280;21130;51.728;8.748;2022-08-01T05:04:36;100390.31;;;17.00;100.00
34925;BME280;21130;51.728;8.748;2022-08-01T05:07:02;100386.41;;;17.01;100.00
34925;BME280;21130;51.728;8.748;2022-08-01T05:09:27;100391.94;;;17.11;100.00
34925;BME280;21130;51.728;8.748;2022-08-01T05:11:53;100392.22;;;17.10;100.00
34925;BME280;21130;51.728;8.748;2022-08-01T05:14:18;100390.00;;;17.06;100.00
34925;BME280;21130;51.728;8.748;2022-08-01T05:16:44;100392.25;;;17.04;100.00
34925;BME280;21130;51.728;8.748;2022-08-01T05:19:09;100400.09;;;17.08;100.00
34925;BME280;21130;51.728;8.748;2022-08-01T05:21:48;100389.72;;;17.08;100.00
34925;BME280;21130;51.728;8.748;2022-08-01T05:24:13;100398.09;;;17.13;100.00
34925;BME280;21130;51.728;8.748;2022-08-01T05:26:40;100395.84;;;17.10;100.00
34925;BME280;21130;51.728;8.748;2022-08-01T05:29:06;100402.31;;;17.11;100.00
34925;BME280;21130;51.728;8.748;2022-08-01T05:31:31;100400.03;;;17.13;100.00
34925;BME280;21130;51.728;8.748;2022-08-01T05:34:00;100403.16;;;17.11;100.00
34925;BME280;21130;51.728;8.748;2022-08-01T05:36:25;100400.91;;;17.13;100.00
34925;BME280;21130;51.728;8.748;2022-08-01T05:38:51;100398.59;;;17.20;100.00
34925;BME280;21130;51.728;8.748;2022-08-01T05:41:16;100405.63;;;17.18;100.00
34925;BME280;21130;51.728;8.748;2022-08-01T05:43:41;100401.38;;;17.20;100.00
34925;BME280;21130;51.728;8.748;2022-08-01T05:46:07;100405.31;;;17.24;100.00
34925;BME280;21130;51.728;8.748;2022-08-01T05:48:32;100398.03;;;17.23;100.00
34925;BME280;21130;51.728;8.748;2022-08-01T05:50:57;100405.59;;;17.23;100.00
34925;BME280;21130;51.728;8.748;2022-08-01T05:53:22;100399.72;;;17.19;100.00
34925;BME280;21130;51.728;8.748;2022-08-01T05:55:48;100408.66;;;17.26;100.00
34925;BME280;21130;51.728;8.748;2022-08-01T05:58:13;100409.75;;;17.31;100.00
34925;BME280;21130;51.728;8.748;2022-08-01T06:00:39;100413.41;;;17.31;100.00
34925;BME280;21130;51.728;8.748;2022-08-01T06:03:04;100413.06;;;17.33;100.00
34925;BME280;21130;51.728;8.748;2022-08-01T06:05:29;100428.50;;;17.35;100.00
34925;BME280;21130;51.728;8.748;2022-08-01T06:07:56;100426.78;;;17.39;100.00
34925;BME280;21130;51.728;8.748;2022-08-01T06:10:23;100421.97;;;17.45;100.00
34925;BME280;21130;51.728;8.748;2022-08-01T06:12:48;100424.22;;;17.48;100.00
34925;BME280;21130;51.728;8.748;2022-08-01T06:15:13;100425.91;;;17.44;100.00
34925;BME280;21130;51.728;8.748;2022-08-01T06:17:39;100424.72;;;17.50;100.00
34925;BME280;21130;51.728;8.748;2022-08-01T06:20:07;100429.22;;;17.51;100.00
34925;BME280;21130;51.728;8.748;2022-08-01T06:22:32;100426.34;;;17.61;100.00
34925;BME280;21130;51.728;8.748;2022-08-01T06:24:58;100424.31;;;17.67;100.00
34925;BME280;21130;51.728;8.748;2022-08-01T06:27:23;100434.91;;;17.75;100.00
34925;BME280;21130;51.728;8.748;2022-08-01T06:29:51;100426.47;;;17.80;100.00
34925;BME280;21130;51.728;8.748;2022-08-01T06:32:19;100429.47;;;17.89;100.00
34925;BME280;21130;51.728;8.748;2022-08-01T06:34:44;100431.91;;;17.96;100.00
34925;BME280;21130;51.728;8.748;2022-08-01T06:37:10;100437.19;;;18.02;100.00
34925;BME280;21130;51.728;8.748;2022-08-01T06:39:35;100427.88;;;18.07;100.00
34925;BME280;21130;51.728;8.748;2022-08-01T06:42:01;100436.97;;;17.99;100.00
34925;BME280;21130;51.728;8.748;2022-08-01T06:44:26;100431.28;;;18.04;100.00
34925;BME280;21130;51.728;8.748;2022-08-01T06:46:51;100433.50;;;18.07;100.00
34925;BME280;21130;51.728;8.748;2022-08-01T06:49:16;100437.91;;;18.13;100.00
34925;BME280;21130;51.728;8.748;2022-08-01T06:51:42;100432.66;;;18.30;100.00
34925;BME280;21130;51.728;8.748;2022-08-01T06:54:07;100433.63;;;18.45;100.00
34925;BME280;21130;51.728;8.748;2022-08-01T06:56:32;100435.41;;;18.35;100.00
34925;BME280;21130;51.728;8.748;2022-08-01T06:59:00;100440.34;;;18.49;100.00
34925;BME280;21130;51.728;8.748;2022-08-01T07:01:27;100427.47;;;18.43;100.00
34925;BME280;21130;51.728;8.748;2022-08-01T07:03:53;100430.22;;;18.48;100.00
34925;BME280;21130;51.728;8.748;2022-08-01T07:06:18;100435.91;;;18.43;100.00
34925;BME280;21130;51.728;8.748;2022-08-01T07:08:44;100428.97;;;18.35;100.00
34925;BME280;21130;51.728;8.748;2022-08-01T07:11:09;100429.56;;;18.32;100.00
34925;BME280;21130;51.728;8.748;2022-08-01T07:13:35;100427.44;;;18.24;100.00
34925;BME280;21130;51.728;8.748;2022-08-01T07:16:00;100419.19;;;18.08;100.00
34925;BME280;21130;51.728;8.748;2022-08-01T07:18:25;100433.06;;;17.95;100.00
34925;BME280;21130;51.728;8.748;2022-08-01T07:20:50;100433.34;;;17.93;100.00
34925;BME280;21130;51.728;8.748;2022-08-01T07:23:16;100427.16;;;17.96;100.00
34925;BME280;21130;51.728;8.748;2022-08-01T07:25:42;100435.53;;;18.01;100.00
34925;BME280;21130;51.728;8.748;2022-08-01T07:28:08;100436.31;;;18.07;100.00
34925;BME280;21130;51.728;8.748;2022-08-01T07:30:34;100436.19;;;18.17;100.00
34925;BME280;21130;51.728;8.748;2022-08-01T07:33:00;100434.16;;;18.23;100.00
34925;BME280;21130;51.728;8.748;2022-08-01T07:35:25;100441.16;;;18.25;100.00
34925;BME280;21130;51.728;8.748;2022-08-01T07:37:51;100443.91;;;18.30;100.00
34925;BME280;21130;51.728;8.748;2022-08-01T07:40:18;100436.75;;;18.43;100.00
34925;BME280;21130;51.728;8.748;2022-08-01T07:42:44;100438.38;;;18.49;100.00
34925;BME280;21130;51.728;8.748;2022-08-01T07:45:10;100438.72;;;18.67;100.00
34925;BME280;21130;51.728;8.748;2022-08-01T07:47:36;100442.50;;;18.81;100.00
34925;BME280;21130;51.728;8.748;2022-08-01T07:50:03;100445.25;;;19.05;100.00
34925;BME280;21130;51.728;8.748;2022-08-01T07:52:29;100455.22;;;19.35;100.00
34925;BME280;21130;51.728;8.748;2022-08-01T07:54:55;100451.25;;;19.36;100.00
34925;BME280;21130;51.728;8.748;2022-08-01T07:57:22;100465.09;;;19.33;100.00
34925;BME280;21130;51.728;8.748;2022-08-01T07:59:47;100456.56;;;19.38;100.00
34925;BME280;21130;51.728;8.748;2022-08-01T08:02:12;100460.09;;;19.30;100.00
34925;BME280;21130;51.728;8.748;2022-08-01T08:04:38;100468.53;;;19.30;100.00
34925;BME280;21130;51.728;8.748;2022-08-01T08:07:03;100473.63;;;19.28;100.00
34925;BME280;21130;51.728;8.748;2022-08-01T08:09:29;100471.72;;;19.23;100.00
34925;BME280;21130;51.728;8.748;2022-08-01T08:11:54;100474.66;;;19.13;100.00
34925;BME280;21130;51.728;8.748;2022-08-01T08:14:19;100467.47;;;19.07;100.00
34925;BME280;21130;51.728;8.748;2022-08-01T08:16:47;100478.94;;;19.10;100.00
34925;BME280;21130;51.728;8.748;2022-08-01T08:19:13;100481.13;;;19.13;100.00
34925;BME280;21130;51.728;8.748;2022-08-01T08:21:38;100476.13;;;19.10;100.00
34925;BME280;21130;51.728;8.748;2022-08-01T08:24:04;100478.00;;;18.96;100.00
34925;BME280;21130;51.728;8.748;2022-08-01T08:26:55;100482.09;;;18.85;100.00
34925;BME280;21130;51.728;8.748;2022-08-01T08:29:25;100476.44;;;18.61;100.00
34925;BME280;21130;51.728;8.748;2022-08-01T08:31:55;100482.06;;;18.61;100.00
34925;BME280;21130;51.728;8.748;2022-08-01T08:34:20;100482.00;;;18.42;100.00
34925;BME280;21130;51.728;8.748;2022-08-01T08:36:46;100488.69;;;18.46;100.00
34925;BME280;21130;51.728;8.748;2022-08-01T08:39:12;100494.53;;;18.25;100.00
34925;BME280;21130;51.728;8.748;2022-08-01T08:41:37;100483.47;;;18.10;100.00
34925;BME280;21130;51.728;8.748;2022-08-01T08:44:07;100482.84;;;18.13;100.00
34925;BME280;21130;51.728;8.748;2022-08-01T08:46:33;100492.31;;;18.22;100.00
34925;BME280;21130;51.728;8.748;2022-08-01T08:48:59;100491.09;;;18.33;100.00
34925;BME280;21130;51.728;8.748;2022-08-01T08:51:26;100482.66;;;18.57;100.00
34925;BME280;21130;51.728;8.748;2022-08-01T08:53:55;100489.44;;;18.81;100.00
34925;BME280;21130;51.728;8.748;2022-08-01T08:56:21;100493.06;;;19.05;100.00
34925;BME280;21130;51.728;8.748;2022-08-01T08:58:48;100500.09;;;19.27;100.00
34925;BME280;21130;51.728;8.748;2022-08-01T09:01:13;100496.97;;;19.47;100.00
34925;BME280;21130;51.728;8.748;2022-08-01T09:03:39;100503.44;;;19.67;100.00
34925;BME280;21130;51.728;8.748;2022-08-01T09:06:05;100493.22;;;19.90;100.00
34925;BME280;21130;51.728;8.748;2022-08-01T09:08:30;100497.78;;;20.18;99.26
34925;BME280;21130;51.728;8.748;2022-08-01T09:10:56;100503.22;;;20.28;99.01
34925;BME280;21130;51.728;8.748;2022-08-01T09:13:21;100508.78;;;20.47;97.20
34925;BME280;21130;51.728;8.748;2022-08-01T09:15:52;100508.31;;;20.73;95.73
34925;BME280;21130;51.728;8.748;2022-08-01T09:18:28;100505.38;;;21.06;94.20
34925;BME280;21130;51.728;8.748;2022-08-01T09:23:36;100506.19;;;21.70;87.11
34925;BME280;21130;51.728;8.748;2022-08-01T09:26:08;100508.50;;;21.91;84.90
34925;BME280;21130;51.728;8.748;2022-08-01T09:28:34;100513.50;;;22.16;87.59
34925;BME280;21130;51.728;8.748;2022-08-01T09:31:18;100517.56;;;22.24;83.79
34925;BME280;21130;51.728;8.748;2022-08-01T09:34:03;100513.59;;;22.03;82.58
34925;BME280;21130;51.728;8.748;2022-08-01T09:36:49;100514.22;;;21.99;83.23
34925;BME280;21130;51.728;8.748;2022-08-01T09:39:30;100512.88;;;21.97;85.31
34925;BME280;21130;51.728;8.748;2022-08-01T09:41:57;100515.81;;;22.68;83.97
34925;BME280;21130;51.728;8.748;2022-08-01T09:44:40;100520.34;;;22.78;81.17
34925;BME280;21130;51.728;8.748;2022-08-01T09:47:06;100513.06;;;22.94;79.81
34925;BME280;21130;51.728;8.748;2022-08-01T09:49:34;100510.53;;;23.41;76.13
34925;BME280;21130;51.728;8.748;2022-08-01T09:52:20;100514.09;;;23.73;70.98
34925;BME280;21130;51.728;8.748;2022-08-01T09:55:00;100511.88;;;23.44;74.85
34925;BME280;21130;51.728;8.748;2022-08-01T09:57:26;100513.22;;;23.64;71.50
34925;BME280;21130;51.728;8.748;2022-08-01T09:59:53;100513.38;;;23.33;70.96
34925;BME280;21130;51.728;8.748;2022-08-01T10:02:36;100520.28;;;23.75;71.22
34925;BME280;21130;51.728;8.748;2022-08-01T10:05:07;100512.06;;;24.08;71.99
34925;BME280;21130;51.728;8.748;2022-08-01T10:07:33;100514.31;;;24.58;68.53
34925;BME280;21130;51.728;8.748;2022-08-01T10:10:15;100517.34;;;24.27;67.22
34925;BME280;21130;51.728;8.748;2022-08-01T10:12:41;100514.91;;;23.82;69.89
34925;BME280;21130;51.728;8.748;2022-08-01T10:15:08;100529.59;;;23.01;71.94
34925;BME280;21130;51.728;8.748;2022-08-01T10:17:34;100524.88;;;22.48;72.74
34925;BME280;21130;51.728;8.748;2022-08-01T10:20:02;100523.59;;;22.09;76.03
34925;BME280;21130;51.728;8.748;2022-08-01T10:22:30;100535.56;;;21.69;79.41
34925;BME280;21130;51.728;8.748;2022-08-01T10:24:56;100536.31;;;20.97;84.47
34925;BME280;21130;51.728;8.748;2022-08-01T10:27:24;100537.75;;;20.20;94.21
34925;BME280;21130;51.728;8.748;2022-08-01T10:29:55;100535.47;;;19.90;100.00
34925;BME280;21130;51.728;8.748;2022-08-01T10:32:22;100545.75;;;19.61;100.00
34925;BME280;21130;51.728;8.748;2022-08-01T10:34:49;100545.91;;;19.51;100.00
34925;BME280;21130;51.728;8.748;2022-08-01T10:37:14;100544.44;;;19.35;100.00
34925;BME280;21130;51.728;8.748;2022-08-01T10:39:40;100554.47;;;19.41;100.00
34925;BME280;21130;51.728;8.748;2022-08-01T10:42:05;100552.13;;;19.48;100.00
34925;BME280;21130;51.728;8.748;2022-08-01T10:44:31;100557.38;;;19.55;100.00
34925;BME280;21130;51.728;8.748;2022-08-01T10:47:12;100551.00;;;19.49;100.00
34925;BME280;21130;51.728;8.748;2022-08-01T10:49:47;100534.72;;;19.84;100.00
34925;BME280;21130;51.728;8.748;2022-08-01T10:52:19;100539.34;;;20.26;100.00
34925;BME280;21130;51.728;8.748;2022-08-01T10:54:46;100536.63;;;20.68;100.00
34925;BME280;21130;51.728;8.748;2022-08-01T10:57:12;100540.50;;;21.00;96.85
34925;BME280;21130;51.728;8.748;2022-08-01T10:59:51;100533.34;;;21.57;96.54
34925;BME280;21130;51.728;8.748;2022-08-01T11:02:28;100539.25;;;21.70;91.32
34925;BME280;21130;51.728;8.748;2022-08-01T11:05:04;100542.25;;;21.73;90.01
34925;BME280;21130;51.728;8.748;2022-08-01T11:08:10;100539.53;;;21.82;87.32
34925;BME280;21130;51.728;8.748;2022-08-01T11:10:46;100537.25;;;21.70;83.73
34925;BME280;21130;51.728;8.748;2022-08-01T11:13:12;100547.50;;;21.66;86.11
34925;BME280;21130;51.728;8.748;2022-08-01T11:15:39;100547.72;;;21.70;86.30
34925;BME280;21130;51.728;8.748;2022-08-01T11:18:34;100542.78;;;21.25;84.08
34925;BME280;21130;51.728;8.748;2022-08-01T11:21:02;100547.28;;;20.99;86.63
34925;BME280;21130;51.728;8.748;2022-08-01T11:23:29;100547.16;;;20.76;89.25
34925;BME280;21130;51.728;8.748;2022-08-01T11:28:22;100544.28;;;20.35;92.35
34925;BME280;21130;51.728;8.748;2022-08-01T11:41:29;100557.44;;;20.39;96.99
34925;BME280;21130;51.728;8.748;2022-08-01T11:52:02;100557.66;;;20.89;91.00
34925;BME280;21130;51.728;8.748;2022-08-01T11:54:30;100551.56;;;20.96;86.15
34925;BME280;21130;51.728;8.748;2022-08-01T11:57:10;100552.22;;;21.07;87.67
34925;BME280;21130;51.728;8.748;2022-08-01T11:59:41;100551.97;;;21.45;84.00
34925;BME280;21130;51.728;8.748;2022-08-01T12:02:26;100555.19;;;21.38;80.71
34925;BME280;21130;51.728;8.748;2022-08-01T12:07:18;100557.81;;;21.34;83.98
34925;BME280;21130;51.728;8.748;2022-08-01T12:09:44;100563.13;;;21.36;82.25
34925;BME280;21130;51.728;8.748;2022-08-01T12:12:11;100556.53;;;21.91;82.02
34925;BME280;21130;51.728;8.748;2022-08-01T12:14:39;100558.28;;;22.46;78.99
34925;BME280;21130;51.728;8.748;2022-08-01T12:17:05;100561.50;;;22.53;77.98
34925;BME280;21130;51.728;8.748;2022-08-01T12:19:30;100550.81;;;22.81;75.68
34925;BME280;21130;51.728;8.748;2022-08-01T12:22:05;100563.78;;;22.82;74.81
34925;BME280;21130;51.728;8.748;2022-08-01T12:24:32;100558.69;;;22.93;72.54
34925;BME280;21130;51.728;8.748;2022-08-01T12:26:58;100569.06;;;22.97;73.45
34925;BME280;21130;51.728;8.748;2022-08-01T12:29:40;100566.94;;;22.49;73.62
34925;BME280;21130;51.728;8.748;2022-08-01T12:32:25;100564.34;;;22.61;75.64
34925;BME280;21130;51.728;8.748;2022-08-01T12:34:52;100569.66;;;22.94;73.29
34925;BME280;21130;51.728;8.748;2022-08-01T12:37:18;100573.19;;;22.60;74.82
34925;BME280;21130;51.728;8.748;2022-08-01T12:39:44;100578.25;;;22.49;74.44
34925;BME280;21130;51.728;8.748;2022-08-01T12:42:11;100578.25;;;22.49;75.62
34925;BME280;21130;51.728;8.748;2022-08-01T12:44:37;100579.34;;;22.39;78.48
34925;BME280;21130;51.728;8.748;2022-08-01T12:47:06;100573.00;;;22.11;77.57
34925;BME280;21130;51.728;8.748;2022-08-01T12:49:33;100572.84;;;21.94;77.57
34925;BME280;21130;51.728;8.748;2022-08-01T12:51:58;100572.47;;;22.09;77.73
34925;BME280;21130;51.728;8.748;2022-08-01T12:54:24;100573.53;;;22.36;77.22
34925;BME280;21130;51.728;8.748;2022-08-01T12:56:51;100565.31;;;22.26;76.45
34925;BME280;21130;51.728;8.748;2022-08-01T12:59:21;100570.69;;;22.13;77.50
34925;BME280;21130;51.728;8.748;2022-08-01T13:01:48;100578.09;;;22.23;77.76
34925;BME280;21130;51.728;8.748;2022-08-01T13:04:14;100576.97;;;22.10;78.69
34925;BME280;21130;51.728;8.748;2022-08-01T13:06:39;100572.84;;;22.16;79.68
34925;BME280;21130;51.728;8.748;2022-08-01T13:09:06;100571.09;;;21.48;78.76
34925;BME280;21130;51.728;8.748;2022-08-01T13:11:31;100576.03;;;21.78;80.21
34925;BME280;21130;51.728;8.748;2022-08-01T13:13:57;100575.81;;;22.11;79.67
34925;BME280;21130;51.728;8.748;2022-08-01T13:16:24;100574.97;;;22.25;77.54
34925;BME280;21130;51.728;8.748;2022-08-01T13:18:51;100571.38;;;22.19;76.51
34925;BME280;21130;51.728;8.748;2022-08-01T13:21:26;100580.34;;;22.35;74.33